Time;durP1;ratioP1;P1;durP2;ratioP2;P2;SDS_P1;SDS_P2;PMS_P1;PMS_P2;Temp;Humidity;BMP_temperature;BMP_pressure;BME280_temperature;BME280_humidity;BME280_pressure;Samples;Min_cycle;Max_cycle;Signal;HPM_P1;HPM_P2
2022/09/02 00:02:18;;;;;;;22.33;10.20;;;;;;;31.21;67.47;98027.44;4910823;29;20130;-74
2022/09/02 00:05:07;;;;;;;21.63;11.45;;;;;;;31.34;67.00;98028.06;4910397;29;20100;-75
2022/09/02 00:07:49;;;;;;;27.90;10.82;;;;;;;31.30;66.77;98036.31;4894472;29;20123;-75
2022/09/02 00:10:47;;;;;;;29.52;10.95;;;;;;;31.31;67.21;98035.13;4909892;29;20115;-75
2022/09/02 00:13:22;;;;;;;31.23;11.52;;;;;;;31.31;66.99;98042.66;4909643;29;20099;-74
2022/09/02 00:16:18;;;;;;;27.42;11.40;;;;;;;31.32;67.08;98036.75;4909781;29;20044;-74
2022/09/02 00:18:55;;;;;;;20.95;11.38;;;;;;;31.30;67.06;98052.13;4910090;29;20135;-75
2022/09/02 00:21:44;;;;;;;26.65;12.98;;;;;;;31.27;67.49;98053.69;4909767;29;20603;-73
2022/09/02 00:24:33;;;;;;;22.85;12.13;;;;;;;31.28;67.49;98057.25;4909907;29;20044;-74
2022/09/02 00:27:16;;;;;;;30.77;12.73;;;;;;;31.28;67.57;98058.06;4909720;29;20048;-75
2022/09/02 00:30:05;;;;;;;22.65;13.30;;;;;;;31.24;67.76;98071.03;4909546;29;20051;-74
2022/09/02 00:32:47;;;;;;;26.20;15.57;;;;;;;31.27;68.13;98064.78;4909065;29;20450;-75
2022/09/02 00:35:36;;;;;;;37.72;18.00;;;;;;;31.22;68.88;98065.88;4892426;29;20052;-75
2022/09/02 00:38:19;;;;;;;48.83;18.85;;;;;;;31.21;69.43;98074.56;4876752;29;20067;-74
2022/09/02 00:41:12;;;;;;;35.95;19.27;;;;;;;31.16;69.50;98078.41;4909893;29;20194;-73
2022/09/02 00:43:59;;;;;;;36.85;20.15;;;;;;;31.16;69.81;98083.97;4909430;29;20430;-76
2022/09/02 00:46:42;;;;;;;47.83;23.05;;;;;;;31.14;69.63;98088.28;4912087;29;20079;-75
2022/09/02 00:49:37;;;;;;;42.33;24.50;;;;;;;31.15;69.68;98087.13;4912935;29;20424;-74
2022/09/02 00:52:36;;;;;;;46.30;25.92;;;;;;;31.17;69.44;98095.88;4896587;29;20048;-73
2022/09/02 00:55:25;;;;;;;43.83;28.23;;;;;;;31.12;69.94;98102.50;4912860;29;20075;-75
2022/09/02 00:58:25;;;;;;;46.65;28.10;;;;;;;31.12;70.41;98107.25;4912542;29;20048;-73
2022/09/02 01:01:00;;;;;;;53.03;30.37;;;;;;;31.16;70.29;98108.91;4896648;29;20071;-75
2022/09/02 01:03:57;;;;;;;50.58;30.67;;;;;;;31.15;70.25;98110.09;4905180;29;20048;-76
2022/09/02 01:06:45;;;;;;;49.78;32.17;;;;;;;31.12;70.22;98123.88;4912695;29;20047;-76
2022/09/02 01:09:35;;;;;;;64.35;31.80;;;;;;;31.15;70.69;98123.16;4912971;29;20390;-75
2022/09/02 01:12:17;;;;;;;55.65;31.55;;;;;;;31.18;70.18;98126.00;4909692;29;20064;-74
2022/09/02 01:15:06;;;;;;;65.97;35.25;;;;;;;31.16;69.80;98121.97;4914146;29;20087;-75
2022/09/02 01:17:50;;;;;;;58.78;33.45;;;;;;;31.23;69.98;98135.97;4919145;29;20064;-75
2022/09/02 01:20:41;;;;;;;61.70;34.42;;;;;;;31.21;69.97;98139.13;4923995;29;20043;-75
2022/09/02 01:23:22;;;;;;;;;;;;;;;31.32;69.40;98136.56;4924327;29;20052;-76
2022/09/02 01:26:15;;;;;;;54.47;33.33;;;;;;;31.44;69.20;98140.34;4914908;29;20351;-75
2022/09/02 01:28:59;;;;;;;71.03;36.78;;;;;;;31.38;69.40;98146.19;4898640;29;20495;-75
2022/09/02 01:31:48;;;;;;;57.53;36.15;;;;;;;31.39;69.91;98150.56;4892219;29;20144;-75
2022/09/02 01:34:30;;;;;;;54.90;34.70;;;;;;;31.42;69.47;98158.16;4892237;29;20079;-75
2022/09/02 01:37:19;;;;;;;60.42;35.50;;;;;;;31.45;69.82;98151.06;4891208;29;20121;-74
2022/09/02 01:40:01;;;;;;;56.97;34.08;;;;;;;31.50;69.31;98169.41;4892819;29;20560;-75
2022/09/02 01:42:52;;;;;;;60.65;35.45;;;;;;;31.56;69.02;98167.94;4893587;29;20049;-75
2022/09/02 01:45:39;;;;;;;69.30;35.10;;;;;;;31.64;69.30;98164.13;4892148;29;20369;-75
2022/09/02 01:48:30;;;;;;;64.25;34.65;;;;;;;31.71;69.78;98172.59;4892163;29;20048;-75
2022/09/02 01:51:16;;;;;;;55.28;32.80;;;;;;;31.77;69.04;98171.09;4893040;29;20453;-74
2022/09/02 01:54:07;;;;;;;55.45;32.97;;;;;;;31.84;68.73;98178.78;4892403;29;20111;-74
2022/09/02 01:56:49;;;;;;;55.10;29.98;;;;;;;31.95;68.59;98173.41;4892683;29;20135;-75
2022/09/02 01:59:38;;;;;;;48.28;29.83;;;;;;;32.01;68.26;98174.72;4891825;29;20060;-76
2022/09/02 02:02:29;;;;;;;55.05;30.77;;;;;;;32.07;67.85;98176.03;4893313;29;20291;-76
2022/09/02 02:05:25;;;;;;;49.47;27.08;;;;;;;32.23;66.77;98180.66;4892903;29;20040;-74
2022/09/02 02:08:21;;;;;;;71.50;29.75;;;;;;;32.24;67.45;98183.06;4891337;29;20052;-75
2022/09/02 02:10:59;;;;;;;60.83;28.88;;;;;;;32.32;67.15;98181.19;4892133;29;20065;-76
2022/09/02 02:13:49;;;;;;;41.65;24.50;;;;;;;32.48;66.29;98178.25;4890504;29;20052;-76
2022/09/02 02:16:38;;;;;;;42.50;20.83;;;;;;;32.56;64.45;98186.38;4891445;29;20479;-74
2022/09/02 02:19:20;;;;;;;41.28;19.10;;;;;;;32.56;63.22;98183.59;4890043;29;20098;-75
2022/09/02 02:22:12;;;;;;;34.78;19.50;;;;;;;32.71;62.23;98186.56;4893071;29;20124;-77
2022/09/02 02:24:54;;;;;;;35.08;17.60;;;;;;;32.86;61.95;98188.38;4895186;29;20044;-77
2022/09/02 02:27:43;;;;;;;37.38;18.92;;;;;;;32.98;62.15;98198.50;4892166;29;20048;-75
2022/09/02 02:30:25;;;;;;;39.08;18.42;;;;;;;33.02;61.97;98196.56;4890039;29;20052;-76
2022/09/02 02:33:16;;;;;;;32.92;17.52;;;;;;;33.07;62.31;98199.00;4890038;29;20051;-76
2022/09/02 02:35:58;;;;;;;28.60;16.95;;;;;;;33.09;61.84;98204.19;4890834;29;20167;-77
2022/09/02 02:38:47;;;;;;;27.67;15.90;;;;;;;33.11;61.70;98207.41;4891036;29;20120;-76
2022/09/02 02:41:37;;;;;;;35.25;17.20;;;;;;;33.03;61.38;98211.25;4888754;29;20565;-75
2022/09/02 02:44:26;;;;;;;37.45;16.63;;;;;;;33.09;60.00;98213.31;4889457;29;20052;-76
2022/09/02 02:47:09;;;;;;;33.60;16.17;;;;;;;33.08;59.11;98217.28;4889392;29;20044;-74
2022/09/02 02:49:58;;;;;;;36.03;16.42;;;;;;;33.06;60.17;98221.63;4889747;29;20116;-73
2022/09/02 02:52:40;;;;;;;40.28;17.58;;;;;;;33.01;60.09;98222.75;4890791;29;20469;-76
2022/09/02 02:55:32;;;;;;;28.83;16.88;;;;;;;32.95;59.72;98224.25;4889518;29;20044;-75
2022/09/02 02:58:14;;;;;;;30.40;16.83;;;;;;;33.02;59.21;98227.13;4891169;29;20044;-75
2022/09/02 03:01:04;;;;;;;35.97;16.63;;;;;;;33.12;58.36;98223.72;4893385;29;20048;-75
2022/09/02 03:03:59;;;;;;;33.40;17.48;;;;;;;33.08;58.94;98227.63;4901586;28;20062;-75
2022/09/02 03:06:54;;;;;;;32.45;18.17;;;;;;;33.09;58.65;98229.19;4913870;28;20548;-74
2022/09/02 03:09:44;;;;;;;34.40;17.83;;;;;;;33.06;58.91;98224.41;4900240;29;20058;-76
2022/09/02 03:12:33;;;;;;;32.10;17.10;;;;;;;33.07;58.53;98234.34;4892600;29;20052;-73
2022/09/02 03:15:18;;;;;;;34.78;16.65;;;;;;;33.17;58.02;98230.91;4892340;29;20047;-73
2022/09/02 03:18:07;;;;;;;31.85;17.48;;;;;;;33.14;58.75;98242.81;4893483;29;20059;-75
2022/09/02 03:20:56;;;;;;;37.40;17.05;;;;;;;33.18;58.10;98238.09;4892392;29;20357;-76
2022/09/02 03:23:45;;;;;;;32.47;17.40;;;;;;;33.15;59.13;98238.84;4892749;29;20056;-73
2022/09/02 03:26:34;;;;;;;36.15;16.95;;;;;;;33.27;57.99;98248.94;4909922;29;20712;-76
2022/09/02 03:29:25;;;;;;;35.28;16.65;;;;;;;33.45;58.59;98241.63;4893421;29;20056;-76
2022/09/02 03:32:08;;;;;;;41.10;17.30;;;;;;;33.42;58.14;98249.91;4910401;29;20044;-74
2022/09/02 03:34:57;;;;;;;28.77;16.40;;;;;;;33.49;58.04;98247.22;4889600;29;20148;-74
2022/09/02 03:37:41;;;;;;;31.00;16.30;;;;;;;33.74;57.64;98253.94;4891971;29;20074;-76
2022/09/02 03:40:33;;;;;;;42.40;18.63;;;;;;;33.62;58.34;98256.94;4892026;29;20054;-76
2022/09/02 03:43:22;;;;;;;40.58;18.92;;;;;;;33.66;57.81;98255.03;4877821;29;20372;-75
2022/09/02 03:46:12;;;;;;;35.65;17.73;;;;;;;33.78;56.39;98259.53;4912108;29;20052;-77
2022/09/02 03:48:56;;;;;;;32.97;16.60;;;;;;;33.99;56.12;98261.72;4904239;29;20048;-77
2022/09/02 03:51:47;;;;;;;27.90;14.57;;;;;;;34.01;55.42;98253.81;4911103;29;20360;-76
2022/09/02 03:54:29;;;;;;;29.20;14.38;;;;;;;34.08;56.60;98264.22;4910139;29;20048;-74
2022/09/02 03:57:19;;;;;;;41.00;16.08;;;;;;;34.04;57.22;98275.31;4897623;29;20052;-74
2022/09/02 04:00:03;;;;;;;34.33;17.00;;;;;;;34.00;57.00;98263.34;4914904;29;20082;-77
2022/09/02 04:02:54;;;;;;;27.75;15.10;;;;;;;34.13;55.27;98266.66;4898494;29;20052;-75
2022/09/02 04:05:38;;;;;;;31.35;13.63;;;;;;;34.07;55.37;98260.66;4894772;29;20113;-75
2022/09/02 04:08:36;;;;;;;27.42;11.85;;;;;;;34.22;57.08;98269.94;4896832;29;20059;-75
2022/09/02 04:11:32;;;;;;;29.83;12.10;;;;;;;34.24;55.03;98275.16;4911338;28;20048;-73
2022/09/02 04:14:26;;;;;;;25.90;12.43;;;;;;;34.09;56.47;98280.56;4891653;29;20063;-74
2022/09/02 04:17:16;;;;;;;34.97;13.50;;;;;;;34.51;53.96;98282.19;4889760;29;20052;-74
2022/09/02 04:20:01;;;;;;;24.50;12.52;;;;;;;34.61;52.48;98288.22;4905914;29;20577;-74
2022/09/02 04:22:50;;;;;;;24.73;11.80;;;;;;;34.70;53.75;98285.94;4894330;29;20057;-75
2022/09/02 04:25:33;;;;;;;25.73;12.35;;;;;;;34.75;53.80;98290.34;4892977;29;20072;-75
2022/09/02 04:28:23;;;;;;;19.15;9.65;;;;;;;34.93;52.78;98294.09;4893846;29;20144;-75
2022/09/02 04:31:09;;;;;;;26.85;10.75;;;;;;;35.01;52.99;98301.31;4893823;29;20052;-76
2022/09/02 04:33:59;;;;;;;17.75;9.60;;;;;;;35.53;52.85;98304.03;4905355;29;20057;-74
2022/09/02 04:36:43;;;;;;;19.95;9.30;;;;;;;35.87;50.34;98292.63;4883656;29;20519;-75
2022/09/02 04:39:32;;;;;;;30.67;11.75;;;;;;;36.09;50.44;98301.06;4881463;29;20041;-76
2022/09/02 04:42:21;;;;;;;18.35;8.60;;;;;;;36.40;48.90;98305.97;4894055;29;20068;-74
2022/09/02 04:45:04;;;;;;;20.92;8.77;;;;;;;36.64;47.11;98309.16;4893438;29;20040;-75
2022/09/02 04:47:53;;;;;;;16.83;7.82;;;;;;;37.00;48.10;98303.59;4889743;29;20778;-77
2022/09/02 04:50:37;;;;;;;16.85;8.65;;;;;;;37.28;48.78;98307.53;4894099;29;20070;-76
2022/09/02 04:53:27;;;;;;;19.05;8.27;;;;;;;37.55;46.57;98297.47;4891321;29;20139;-74
2022/09/02 04:56:12;;;;;;;16.65;8.25;;;;;;;37.46;45.74;98301.91;4893626;29;20506;-73
2022/09/02 04:59:03;;;;;;;17.85;8.68;;;;;;;37.68;45.87;98303.44;4891962;29;20052;-71
2022/09/02 05:02:00;;;;;;;20.73;8.80;;;;;;;37.96;44.04;98301.72;4891810;29;20045;-72
2022/09/02 05:04:43;;;;;;;16.40;8.30;;;;;;;38.19;45.12;98301.22;4892486;29;20046;-75
2022/09/02 05:07:37;;;;;;;22.58;7.72;;;;;;;38.13;41.65;98305.66;4892832;29;20048;-72
2022/09/02 05:10:27;;;;;;;18.00;6.95;;;;;;;38.25;41.83;98301.59;4892126;29;20416;-72
2022/09/02 05:13:09;;;;;;;;;;;;;;;38.46;38.64;98298.63;4900457;29;20055;-70
2022/09/02 05:15:59;;;;;;;11.95;4.93;;;;;;;38.67;39.82;98289.28;4912231;29;19923;-68
2022/09/02 05:18:49;;;;;;;11.98;4.90;;;;;;;38.75;40.01;98295.63;4910468;29;20491;-70
2022/09/02 05:21:45;;;;;;;16.05;6.90;;;;;;;38.64;40.78;98295.72;4861168;29;20432;-69
2022/09/02 05:24:42;;;;;;;15.25;6.32;;;;;;;38.52;40.02;98293.38;4875711;29;20044;-69
2022/09/02 05:27:25;;;;;;;19.15;6.20;;;;;;;38.40;41.27;98297.47;4895700;29;20143;-71
2022/09/02 05:30:22;;;;;;;15.75;6.65;;;;;;;38.91;42.10;98300.69;4895239;29;20044;-69
2022/09/02 05:32:57;;;;;;;15.95;6.07;;;;;;;38.87;39.04;98302.75;4911202;29;20130;-70
2022/09/02 05:35:53;;;;;;;16.02;6.40;;;;;;;39.08;42.10;98301.78;4890759;29;20044;-72
2022/09/02 05:38:35;;;;;;;13.55;7.10;;;;;;;38.87;42.48;98302.75;4894791;29;20421;-69
2022/09/02 05:41:32;;;;;;;23.00;7.05;;;;;;;38.91;40.88;98306.31;4895290;29;20062;-72
2022/09/02 05:44:10;;;;;;;24.70;6.60;;;;;;;39.01;40.46;98302.63;4894490;29;20060;-71
2022/09/02 05:47:00;;;;;;;12.60;6.38;;;;;;;39.04;41.18;98304.63;4894758;29;20044;-71
2022/09/02 05:49:50;;;;;;;21.42;7.03;;;;;;;38.70;41.70;98310.88;4894686;29;20143;-70
2022/09/02 05:52:32;;;;;;;17.42;6.57;;;;;;;38.78;40.76;98312.41;4893905;29;20044;-71
2022/09/02 05:55:21;;;;;;;13.05;6.32;;;;;;;39.01;40.59;98311.03;4894790;29;20048;-71
2022/09/02 05:58:03;;;;;;;17.88;7.40;;;;;;;39.33;41.03;98312.75;4911778;29;20048;-72
2022/09/02 06:00:52;;;;;;;24.30;7.53;;;;;;;39.57;40.70;98307.28;4894691;29;20055;-74
2022/09/02 06:03:34;;;;;;;14.48;5.93;;;;;;;38.99;41.62;98316.28;4893161;29;20052;-72
2022/09/02 06:06:23;;;;;;;15.30;6.30;;;;;;;38.55;39.72;98309.41;4893308;29;20087;-71
2022/09/02 06:09:07;;;;;;;12.77;5.57;;;;;;;38.69;41.55;98305.69;4880367;29;20344;-69
2022/09/02 06:11:57;;;;;;;18.35;6.28;;;;;;;38.42;43.61;98302.66;4894661;29;20146;-70
2022/09/02 06:14:48;;;;;;;16.92;6.65;;;;;;;38.78;42.31;98300.41;4890653;29;20049;-70
2022/09/02 06:17:43;;;;;;;18.55;5.90;;;;;;;38.93;43.48;98293.44;4891671;29;20155;-70
2022/09/02 06:20:18;;;;;;;18.20;6.18;;;;;;;38.99;40.47;98299.44;4894397;29;20132;-69
2022/09/02 06:23:07;;;;;;;;;;;;;;;39.05;42.71;98288.56;4902005;29;20143;-69
2022/09/02 06:25:58;;;;;;;13.20;6.30;;;;;;;39.22;42.09;98289.59;4885134;29;20461;-72
2022/09/02 06:28:40;;;;;;;17.30;6.45;;;;;;;38.82;40.96;98281.53;4894797;29;20090;-71
2022/09/02 06:31:29;;;;;;;16.77;7.25;;;;;;;38.53;42.73;98283.78;4895707;29;20434;-70
2022/09/02 06:34:18;;;;;;;21.77;8.10;;;;;;;38.66;41.44;98282.09;4892225;29;20456;-71
2022/09/02 06:37:07;;;;;;;17.58;6.75;;;;;;;38.74;42.76;98275.19;4892276;29;20048;-70
2022/09/02 06:39:50;;;;;;;14.93;6.20;;;;;;;38.14;43.08;98276.41;4891823;29;20629;-71
2022/09/02 06:42:39;;;;;;;15.93;6.68;;;;;;;38.56;41.99;98271.75;4892152;29;20124;-72
2022/09/02 06:45:42;;;;;;;16.90;5.82;;;;;;;38.43;43.60;98271.44;4891891;29;20044;-70
2022/09/02 06:48:31;;;;;;;21.08;6.47;;;;;;;38.46;42.95;98273.38;4890987;29;20052;-71
2022/09/02 06:51:22;;;;;;;22.42;7.72;;;;;;;38.67;42.49;98269.63;4890461;29;20075;-70
2022/09/02 06:54:16;;;;;;;9.77;5.75;;;;;;;38.73;43.19;98267.19;4890467;29;20152;-71
2022/09/02 06:57:10;;;;;;;15.07;5.82;;;;;;;38.38;41.36;98261.44;4889752;29;20139;-70
2022/09/02 06:59:59;;;;;;;22.25;6.55;;;;;;;38.64;43.22;98262.06;4891187;29;20048;-70
2022/09/02 07:05:08;;;;;;;16.50;6.68;;;;;;;38.56;42.02;98261.34;4890596;29;20056;-70
2022/09/02 07:05:51;;;;;;;13.98;6.30;;;;;;;38.66;42.66;98256.84;4889649;29;20116;-70
2022/09/02 07:08:49;;;;;;;15.93;7.40;;;;;;;38.80;40.74;98249.50;4890802;29;20052;-69
2022/09/02 07:11:25;;;;;;;13.70;7.00;;;;;;;38.60;41.21;98250.09;4890838;29;20044;-71
2022/09/02 07:14:28;;;;;;;14.43;7.07;;;;;;;38.57;42.38;98248.91;4892070;29;20466;-68
2022/09/02 07:17:25;;;;;;;;;;;;;;;39.08;42.66;98245.66;4905341;29;20063;-71
2022/09/02 07:20:30;;;;;;;19.45;7.20;;;;;;;39.04;43.99;98251.31;4909746;29;19965;-71
2022/09/02 07:23:12;;;;;;;21.20;6.10;;;;;;;39.18;42.73;98233.50;4909642;29;20127;-71
2022/09/02 07:26:07;;;;;;;19.48;6.75;;;;;;;39.01;40.79;98228.88;4909716;29;20324;-70
2022/09/02 07:28:45;;;;;;;18.65;6.43;;;;;;;39.15;39.97;98229.53;4909576;29;20574;-73
2022/09/02 07:31:40;;;;;;;14.25;6.18;;;;;;;39.17;39.61;98223.47;4917195;29;20051;-71
2022/09/02 07:34:25;;;;;;;21.25;5.95;;;;;;;38.84;41.25;98230.63;4900346;29;20142;-71
2022/09/02 07:37:15;;;;;;;21.52;5.85;;;;;;;39.17;41.48;98220.66;4886707;29;20043;-72
2022/09/02 07:39:57;;;;;;;19.38;6.28;;;;;;;39.29;40.05;98214.53;4894375;29;20047;-70
2022/09/02 07:42:53;;;;;;;21.13;5.68;;;;;;;39.26;40.67;98206.16;4921437;29;20423;-70
2022/09/02 07:45:30;;;;;;;17.65;6.05;;;;;;;38.93;38.94;98211.31;4911677;29;20156;-71
2022/09/02 07:48:20;;;;;;;21.55;5.50;;;;;;;38.83;40.06;98198.16;4912053;29;20472;-71
2022/09/02 07:51:04;;;;;;;14.05;5.45;;;;;;;38.98;42.46;98196.81;4914219;29;20051;-70
2022/09/02 07:53:54;;;;;;;17.02;5.93;;;;;;;38.68;40.73;98203.16;4894316;29;20135;-70
2022/09/02 07:56:43;;;;;;;11.18;5.95;;;;;;;38.71;41.94;98194.69;4909242;29;20048;-70
2022/09/02 07:59:25;;;;;;;12.10;5.73;;;;;;;38.89;41.48;98188.09;4893367;29;20076;-71
2022/09/02 08:02:15;;;;;;;17.27;6.05;;;;;;;38.78;40.85;98186.19;4879999;29;20088;-71
2022/09/02 08:04:59;;;;;;;21.42;5.78;;;;;;;38.67;41.13;98176.31;4893495;29;20060;-70
2022/09/02 08:07:48;;;;;;;15.82;5.40;;;;;;;38.81;39.99;98175.34;4909874;29;20054;-70
2022/09/02 08:10:30;;;;;;;24.25;8.13;;;;;;;38.96;40.01;98172.00;4910091;29;20135;-70
2022/09/02 08:13:24;;;;;;;21.10;6.40;;;;;;;38.70;40.11;98167.88;4898669;29;20056;-70
2022/09/02 08:16:07;;;;;;;24.95;6.70;;;;;;;38.49;40.75;98165.25;4909279;29;20489;-71
2022/09/02 08:18:56;;;;;;;21.42;6.65;;;;;;;38.26;40.13;98157.47;4904008;29;20423;-70
2022/09/02 08:21:39;;;;;;;15.85;6.28;;;;;;;38.78;42.38;98158.16;4909740;29;20051;-72
2022/09/02 08:24:28;;;;;;;13.32;6.35;;;;;;;38.23;42.47;98159.06;4909556;29;20165;-70
2022/09/02 08:27:25;;;;;;;12.82;5.57;;;;;;;38.43;42.92;98147.25;4883674;29;20056;-69
2022/09/02 08:30:01;;;;;;;15.23;6.63;;;;;;;38.26;42.52;98146.25;4909464;29;20048;-69
2022/09/02 08:32:56;;;;;;;12.82;5.32;;;;;;;38.31;42.57;98135.38;4909652;29;20479;-68
2022/09/02 08:35:31;;;;;;;13.13;5.85;;;;;;;38.63;43.07;98128.66;4892077;29;20057;-71
2022/09/02 08:38:21;;;;;;;12.18;5.93;;;;;;;38.41;41.70;98130.06;4897633;29;20052;-70
2022/09/02 08:41:03;;;;;;;15.65;5.60;;;;;;;38.09;40.66;98126.38;4901056;29;20144;-71
2022/09/02 08:44:03;;;;;;;21.58;7.00;;;;;;;37.86;42.48;98112.91;4903329;29;20056;-71
2022/09/02 08:46:40;;;;;;;17.35;5.25;;;;;;;38.20;43.98;98101.06;4911465;29;20107;-68
2022/09/02 08:49:37;;;;;;;14.48;5.22;;;;;;;38.08;43.71;98101.56;4911223;29;20044;-70
2022/09/02 08:52:39;;;;;;;19.33;4.65;;;;;;;38.02;42.94;98083.56;4910596;29;20096;-72
2022/09/02 08:55:42;;;;;;;15.48;5.47;;;;;;;37.73;45.15;98086.63;4910354;29;20119;-71
2022/09/02 08:58:23;;;;;;;13.35;5.68;;;;;;;38.03;42.99;98088.78;4909944;29;20079;-69
2022/09/02 09:01:45;;;;;;;24.05;5.78;;;;;;;37.81;43.74;98083.31;4892558;29;20048;-71
2022/09/02 09:04:32;;;;;;;16.23;5.82;;;;;;;37.94;43.19;98072.44;4909217;29;20055;-71
2022/09/02 09:08:01;;;;;;;19.98;5.63;;;;;;;37.70;44.30;98073.44;4910825;29;20056;-68
2022/09/02 09:10:55;;;;;;;14.93;5.45;;;;;;;37.69;44.61;98060.66;4912859;29;20052;-68
2022/09/02 09:14:00;;;;;;;20.50;4.95;;;;;;;37.73;43.85;98055.81;4904320;29;20055;-68
2022/09/02 09:16:51;;;;;;;14.15;5.60;;;;;;;37.71;44.36;98055.44;4911036;29;20121;-69
2022/09/02 09:19:48;;;;;;;20.27;5.75;;;;;;;37.48;44.00;98042.78;4912521;29;20334;-69
2022/09/02 09:22:36;;;;;;;18.70;5.85;;;;;;;37.58;44.25;98036.28;4912922;29;20535;-69
2022/09/02 09:25:31;;;;;;;23.33;6.05;;;;;;;37.59;44.81;98032.28;4912244;29;20056;-70
2022/09/02 09:28:13;;;;;;;16.25;6.07;;;;;;;37.47;44.89;98024.38;4905950;29;20048;-69
2022/09/02 09:31:02;;;;;;;15.48;5.15;;;;;;;37.26;43.58;98022.53;4912631;29;20491;-70
2022/09/02 09:34:04;;;;;;;12.63;5.25;;;;;;;37.32;43.07;98011.69;4912504;29;20052;-72
2022/09/02 09:36:59;;;;;;;13.02;5.38;;;;;;;37.16;43.87;98012.22;4912122;29;20439;-71
2022/09/02 09:39:41;;;;;;;17.58;5.95;;;;;;;37.04;43.74;98007.88;4895213;29;20055;-71
2022/09/02 09:42:43;;;;;;;12.32;5.88;;;;;;;37.05;44.17;98003.84;4912267;29;20059;-70
2022/09/02 09:45:31;;;;;;;18.52;6.00;;;;;;;36.63;44.87;98002.84;4911288;29;20100;-70
2022/09/02 09:48:32;;;;;;;12.75;5.55;;;;;;;36.60;44.06;98001.66;4912060;29;20364;-73
2022/09/02 09:51:15;;;;;;;15.65;6.20;;;;;;;36.71;45.75;97998.84;4912142;29;20104;-71
2022/09/02 09:54:24;;;;;;;8.82;4.95;;;;;;;36.68;42.84;97996.88;4897558;29;20456;-72
2022/09/02 09:57:22;;;;;;;15.57;6.00;;;;;;;36.76;42.15;97984.44;4896257;29;20048;-71
2022/09/02 10:00:24;;;;;;;18.00;4.88;;;;;;;36.69;43.33;97984.50;4869354;29;20368;-71
2022/09/02 10:03:48;;;;;;;18.27;5.90;;;;;;;36.73;42.89;97976.88;4911753;29;20056;-70
2022/09/02 10:06:37;;;;;;;15.27;5.05;;;;;;;37.14;42.88;97979.03;4895542;29;20048;-68
2022/09/02 10:09:33;;;;;;;12.25;4.35;;;;;;;37.19;42.85;97964.63;4911657;29;20064;-70
2022/09/02 10:12:19;;;;;;;12.00;4.72;;;;;;;37.28;41.15;97960.56;4911096;29;20198;-70
2022/09/02 10:15:14;;;;;;;10.57;3.90;;;;;;;37.18;40.82;97957.44;4911575;29;20145;-70
2022/09/02 10:18:06;;;;;;;14.60;4.90;;;;;;;37.28;39.46;97961.38;4891834;29;20045;-70
2022/09/02 10:21:13;;;;;;;10.63;4.13;;;;;;;37.22;40.27;97958.22;4909538;29;20432;-68
2022/09/02 10:24:32;;;;;;;14.52;4.65;;;;;;;37.19;42.62;97947.84;4910441;29;20056;-69
2022/09/02 10:27:26;;;;;;;16.67;4.63;;;;;;;37.40;42.46;97958.06;4913485;29;20056;-68
2022/09/02 10:30:20;;;;;;;11.57;4.50;;;;;;;37.12;42.23;97964.63;4920298;29;20072;-68
2022/09/02 10:33:24;;;;;;;13.00;4.90;;;;;;;37.11;42.70;97951.06;4903225;29;20051;-72
2022/09/02 10:36:57;;;;;;;10.95;4.63;;;;;;;37.29;42.67;97957.34;4918521;29;20056;-69
2022/09/02 10:40:08;;;;;;;14.75;4.68;;;;;;;37.23;42.46;97954.19;4909251;29;20048;-70
2022/09/02 10:43:13;;;;;;;17.48;4.68;;;;;;;37.15;42.52;97952.66;4905049;29;20487;-70
2022/09/02 10:46:00;;;;;;;11.20;3.97;;;;;;;37.09;42.98;97959.88;4917701;29;20130;-71
2022/09/02 10:49:26;;;;;;;10.10;4.13;;;;;;;37.17;40.55;97961.44;4920567;29;20139;-69
2022/09/02 10:52:24;;;;;;;17.95;4.22;;;;;;;36.95;41.00;97957.97;4913720;29;20050;-67
2022/09/02 10:55:13;;;;;;;17.85;3.83;;;;;;;36.95;40.40;97959.97;4917213;29;20043;-71
2022/09/02 10:58:32;;;;;;;17.83;3.72;;;;;;;36.77;38.71;97957.28;4915789;29;20044;-71
2022/09/02 11:01:32;;;;;;;13.43;4.88;;;;;;;37.06;39.10;97963.50;4911180;29;20056;-70
2022/09/02 11:04:38;;;;;;;10.27;4.15;;;;;;;36.99;39.21;97955.16;4911490;29;20055;-70
2022/09/02 11:07:34;;;;;;;11.85;3.95;;;;;;;36.93;39.19;97956.78;4909196;29;20044;-70
2022/09/02 11:10:33;;;;;;;9.50;4.28;;;;;;;36.98;39.39;97959.94;4910898;29;20689;-69
2022/09/02 11:13:51;;;;;;;14.85;3.50;;;;;;;37.08;38.43;97961.06;4910415;29;20485;-70
2022/09/02 11:16:40;;;;;;;9.65;3.85;;;;;;;36.80;39.83;97956.47;4909228;29;20048;-71
2022/09/02 11:19:44;;;;;;;9.38;4.63;;;;;;;37.09;39.92;97959.88;4894538;29;20383;-70
2022/09/02 11:22:45;;;;;;;15.73;4.22;;;;;;;37.15;39.73;97952.66;4891164;29;20052;-71
2022/09/02 11:25:48;;;;;;;11.50;3.58;;;;;;;36.93;39.58;97948.41;4891384;29;20140;-68
2022/09/02 11:29:01;;;;;;;12.65;4.03;;;;;;;36.90;40.83;97952.00;4891463;29;20055;-70
2022/09/02 11:32:05;;;;;;;8.38;3.35;;;;;;;36.86;40.72;97954.03;4890766;29;20056;-70
2022/09/02 11:34:56;;;;;;;18.08;5.25;;;;;;;36.70;41.88;97949.72;4889885;29;20337;-70
2022/09/02 11:38:30;;;;;;;16.65;4.35;;;;;;;36.73;43.90;97948.91;4890335;29;20048;-70
2022/09/02 11:41:44;;;;;;;7.97;4.18;;;;;;;36.63;43.29;97949.72;4891233;29;20054;-72
2022/09/02 11:45:01;;;;;;;8.68;4.53;;;;;;;36.42;44.50;97950.63;4890943;29;20048;-72
2022/09/02 11:48:11;;;;;;;13.35;5.00;;;;;;;36.23;46.84;97949.09;4891432;29;20048;-71
2022/09/02 11:51:27;;;;;;;10.35;5.07;;;;;;;36.32;45.48;97949.47;4891759;29;20050;-72
2022/09/02 11:54:12;;;;;;;20.50;5.43;;;;;;;36.29;46.22;97953.09;4891382;29;20044;-71
2022/09/02 11:57:04;;;;;;;9.95;5.28;;;;;;;36.36;46.67;97952.25;4890228;29;20044;-72
2022/09/02 11:59:59;;;;;;;22.27;6.20;;;;;;;36.32;46.85;97945.88;4891811;29;20096;-73
2022/09/02 12:03:18;;;;;;;16.15;8.00;;;;;;;36.27;47.31;97941.53;4891074;29;20072;-73
2022/09/02 12:06:28;;;;;;;14.40;6.45;;;;;;;36.23;47.72;97940.72;4891128;29;20116;-73
2022/09/02 12:09:50;;;;;;;12.07;5.60;;;;;;;36.42;47.07;97947.84;4891650;29;20402;-72
2022/09/02 12:12:45;;;;;;;17.58;5.57;;;;;;;36.31;47.61;97944.31;4891501;29;20044;-72
2022/09/02 12:15:34;;;;;;;11.32;5.68;;;;;;;36.24;47.53;97940.31;4890927;29;20055;-73
2022/09/02 12:18:17;;;;;;;13.65;5.90;;;;;;;36.32;47.68;97957.06;4891618;29;20553;-71
2022/09/02 12:21:10;;;;;;;14.00;6.07;;;;;;;36.43;46.58;97947.44;4898768;29;20099;-73
2022/09/02 12:24:03;;;;;;;13.63;6.53;;;;;;;36.26;47.58;97939.91;4909359;29;20059;-73
2022/09/02 12:26:52;;;;;;;21.58;6.38;;;;;;;36.17;47.55;97945.97;4909688;29;20484;-73
2022/09/02 12:29:34;;;;;;;24.08;7.70;;;;;;;36.20;47.18;97944.34;4910025;29;20059;-72
2022/09/02 12:32:45;;;;;;;28.83;7.28;;;;;;;36.33;48.15;97953.88;4892735;29;20078;-72
2022/09/02 12:35:57;;;;;;;18.70;7.05;;;;;;;36.07;48.62;97952.31;4909652;29;20123;-72
2022/09/02 12:38:52;;;;;;;21.40;5.70;;;;;;;36.02;48.18;97955.53;4909473;29;20428;-70
2022/09/02 12:41:31;;;;;;;13.45;6.10;;;;;;;35.84;48.21;97955.56;4910763;29;20044;-74
2022/09/02 12:44:47;;;;;;;21.42;6.57;;;;;;;35.98;48.54;97957.53;4913100;29;20072;-71
2022/09/02 12:48:19;;;;;;;22.27;7.10;;;;;;;35.93;48.77;97955.16;4911773;29;20104;-70
2022/09/02 12:52:03;;;;;;;28.75;8.15;;;;;;;35.93;49.09;97955.16;4911886;29;20494;-70
2022/09/02 12:54:55;;;;;;;25.63;9.38;;;;;;;35.91;49.61;97949.19;4896181;29;20135;-71
2022/09/02 12:57:43;;;;;;;38.40;9.05;;;;;;;35.78;49.08;97946.03;4898356;29;20040;-72
2022/09/02 13:01:00;;;;;;;39.58;11.10;;;;;;;35.68;49.38;97948.44;4912730;29;20051;-71
2022/09/02 13:04:14;;;;;;;28.02;6.95;;;;;;;35.53;49.98;97946.81;4913855;29;20060;-72
2022/09/02 13:07:26;;;;;;;22.67;7.72;;;;;;;35.57;49.83;97950.41;4917101;29;20040;-70
2022/09/02 13:10:28;;;;;;;16.52;6.32;;;;;;;35.25;49.24;97947.63;4922194;29;20111;-70
2022/09/02 13:13:09;;;;;;;26.00;6.78;;;;;;;35.38;48.40;97943.22;4914660;29;20048;-69
2022/09/02 13:16:21;;;;;;;20.83;6.55;;;;;;;35.57;48.09;97942.03;4896610;29;20135;-70
2022/09/02 13:19:15;;;;;;;18.27;6.32;;;;;;;35.66;48.22;97939.63;4912165;29;20455;-72
2022/09/02 13:22:29;;;;;;;17.20;6.25;;;;;;;35.61;49.15;97939.22;4895378;29;20036;-70